Porthleven, United Kingdom
Current Conditions -  °F | °C
As of 12:50 AM on Tuesday 27 Jan 2015 (Local Time) from EGDR Reporting Station
Haze Haze  
Wind Chill: 42°   Ceiling: 3000
Heat Index: 45°   Visibility: 6mi
Dew Point: 39°   Wind: 5mph
Humidity: 81%   Direction: 310°NW
Pressure: 30.48"   Gusts: NA
Location:  50.09°N, 5.32°W
Report Text: EGDR 270050Z 31004KT 9999 HZ SCT024 BKN030 07/04 Q1032 WHT
Loading
Personal Weather Stations






























Interactive Weather Map New forecast layout! Learn more

10-Day Weather Forecast

Advertisements
Track Severe Weather on mobile